sensor_id;sensor_type;location;lat;lon;timestamp;pressure;altitude;pressure_sealevel;temperature
61595;BMP280;47397;48.194;11.632;2022-08-18T00:00:21;95605.41;;;19.47
61595;BMP280;47397;48.194;11.632;2022-08-18T00:01:23;95605.13;;;19.51
61595;BMP280;47397;48.194;11.632;2022-08-18T00:02:26;95605.94;;;19.52
61595;BMP280;47397;48.194;11.632;2022-08-18T00:03:28;95600.94;;;19.63
61595;BMP280;47397;48.194;11.632;2022-08-18T00:04:30;95607.97;;;19.61
61595;BMP280;47397;48.194;11.632;2022-08-18T00:05:30;95606.47;;;19.71
61595;BMP280;47397;48.194;11.632;2022-08-18T00:06:31;95613.16;;;19.74
61595;BMP280;47397;48.194;11.632;2022-08-18T00:07:33;95610.28;;;19.78
61595;BMP280;47397;48.194;11.632;2022-08-18T00:08:33;95607.81;;;19.77
61595;BMP280;47397;48.194;11.632;2022-08-18T00:09:35;95623.84;;;19.41
61595;BMP280;47397;48.194;11.632;2022-08-18T00:10:39;95618.09;;;19.50
61595;BMP280;47397;48.194;11.632;2022-08-18T00:11:41;95615.69;;;19.61
61595;BMP280;47397;48.194;11.632;2022-08-18T00:12:42;95614.09;;;19.73
61595;BMP280;47397;48.194;11.632;2022-08-18T00:13:43;95612.91;;;19.64
61595;BMP280;47397;48.194;11.632;2022-08-18T00:14:45;95621.38;;;19.66
61595;BMP280;47397;48.194;11.632;2022-08-18T00:15:46;95603.03;;;19.44
61595;BMP280;47397;48.194;11.632;2022-08-18T00:16:47;95611.75;;;19.55
61595;BMP280;47397;48.194;11.632;2022-08-18T00:17:47;95605.50;;;19.45
61595;BMP280;47397;48.194;11.632;2022-08-18T00:18:47;95600.97;;;19.49
61595;BMP280;47397;48.194;11.632;2022-08-18T00:19:48;95597.94;;;19.56
61595;BMP280;47397;48.194;11.632;2022-08-18T00:20:49;95605.06;;;19.65
61595;BMP280;47397;48.194;11.632;2022-08-18T00:21:50;95611.78;;;19.68
61595;BMP280;47397;48.194;11.632;2022-08-18T00:22:52;95613.34;;;19.44
61595;BMP280;47397;48.194;11.632;2022-08-18T00:23:52;95613.94;;;19.61
61595;BMP280;47397;48.194;11.632;2022-08-18T00:24:54;95618.44;;;19.72
61595;BMP280;47397;48.194;11.632;2022-08-18T00:25:55;95611.34;;;19.61
61595;BMP280;47397;48.194;11.632;2022-08-18T00:26:55;95611.06;;;19.66
61595;BMP280;47397;48.194;11.632;2022-08-18T00:27:56;95603.66;;;19.47
61595;BMP280;47397;48.194;11.632;2022-08-18T00:28:56;95608.88;;;19.60
61595;BMP280;47397;48.194;11.632;2022-08-18T00:29:59;95611.69;;;19.70
61595;BMP280;47397;48.194;11.632;2022-08-18T00:30:59;95611.25;;;19.63
61595;BMP280;47397;48.194;11.632;2022-08-18T00:32:10;95613.31;;;19.58
61595;BMP280;47397;48.194;11.632;2022-08-18T00:33:11;95609.22;;;19.68
61595;BMP280;47397;48.194;11.632;2022-08-18T00:34:11;95615.16;;;19.56
61595;BMP280;47397;48.194;11.632;2022-08-18T00:35:14;95614.97;;;19.59
61595;BMP280;47397;48.194;11.632;2022-08-18T00:36:15;95614.09;;;19.73
61595;BMP280;47397;48.194;11.632;2022-08-18T00:37:16;95613.00;;;19.62
61595;BMP280;47397;48.194;11.632;2022-08-18T00:38:18;95613.31;;;19.58
61595;BMP280;47397;48.194;11.632;2022-08-18T00:39:18;95613.06;;;19.75
61595;BMP280;47397;48.194;11.632;2022-08-18T00:40:24;95621.25;;;19.55
61595;BMP280;47397;48.194;11.632;2022-08-18T00:41:26;95627.47;;;19.65
61595;BMP280;47397;48.194;11.632;2022-08-18T00:42:28;95634.69;;;19.46
61595;BMP280;47397;48.194;11.632;2022-08-18T00:43:36;95633.03;;;19.45
61595;BMP280;47397;48.194;11.632;2022-08-18T00:44:38;95638.38;;;19.56
61595;BMP280;47397;48.194;11.632;2022-08-18T00:45:40;95636.88;;;19.52
61595;BMP280;47397;48.194;11.632;2022-08-18T00:46:41;95637.25;;;19.46
61595;BMP280;47397;48.194;11.632;2022-08-18T00:47:41;95643.22;;;19.60
61595;BMP280;47397;48.194;11.632;2022-08-18T00:48:42;95643.31;;;19.59
61595;BMP280;47397;48.194;11.632;2022-08-18T00:49:43;95646.72;;;19.59
61595;BMP280;47397;48.194;11.632;2022-08-18T00:50:50;95641.69;;;19.44
61595;BMP280;47397;48.194;11.632;2022-08-18T00:51:55;95643.31;;;19.59
61595;BMP280;47397;48.194;11.632;2022-08-18T00:52:59;95639.28;;;19.55
61595;BMP280;47397;48.194;11.632;2022-08-18T00:54:05;95633.97;;;19.44
61595;BMP280;47397;48.194;11.632;2022-08-18T00:55:06;95627.34;;;19.40
61595;BMP280;47397;48.194;11.632;2022-08-18T00:56:09;95623.13;;;19.39
61595;BMP280;47397;48.194;11.632;2022-08-18T00:57:12;95623.84;;;19.41
61595;BMP280;47397;48.194;11.632;2022-08-18T00:58:18;95613.75;;;19.23
61595;BMP280;47397;48.194;11.632;2022-08-18T00:59:22;95612.91;;;19.37
61595;BMP280;47397;48.194;11.632;2022-08-18T01:00:24;95606.91;;;19.36
61595;BMP280;47397;48.194;11.632;2022-08-18T01:01:28;95594.97;;;19.35
61595;BMP280;47397;48.194;11.632;2022-08-18T01:02:32;95603.41;;;19.38
61595;BMP280;47397;48.194;11.632;2022-08-18T01:03:35;95604.97;;;19.40
61595;BMP280;47397;48.194;11.632;2022-08-18T01:04:40;95604.88;;;19.42
61595;BMP280;47397;48.194;11.632;2022-08-18T01:05:44;95603.72;;;19.33
61595;BMP280;47397;48.194;11.632;2022-08-18T01:06:49;95614.91;;;19.46
61595;BMP280;47397;48.194;11.632;2022-08-18T01:07:52;95609.84;;;19.45
61595;BMP280;47397;48.194;11.632;2022-08-18T01:08:52;95613.78;;;19.50
61595;BMP280;47397;48.194;11.632;2022-08-18T01:09:55;95616.84;;;19.43
61595;BMP280;47397;48.194;11.632;2022-08-18T01:10:57;95618.19;;;19.48
61595;BMP280;47397;48.194;11.632;2022-08-18T01:11:59;95634.94;;;19.55
61595;BMP280;47397;48.194;11.632;2022-08-18T01:12:59;95642.75;;;19.13
61595;BMP280;47397;48.194;11.632;2022-08-18T01:14:00;95642.44;;;19.31
61595;BMP280;47397;48.194;11.632;2022-08-18T01:15:00;95642.66;;;19.14
61595;BMP280;47397;48.194;11.632;2022-08-18T01:16:01;95646.03;;;19.29
61595;BMP280;47397;48.194;11.632;2022-08-18T01:17:01;95643.56;;;19.27
61595;BMP280;47397;48.194;11.632;2022-08-18T01:18:05;95647.25;;;19.23
61595;BMP280;47397;48.194;11.632;2022-08-18T01:19:06;95640.53;;;19.35
61595;BMP280;47397;48.194;11.632;2022-08-18T01:20:09;95650.69;;;19.51
61595;BMP280;47397;48.194;11.632;2022-08-18T01:21:15;95639.75;;;19.47
61595;BMP280;47397;48.194;11.632;2022-08-18T01:22:21;95645.53;;;19.51
61595;BMP280;47397;48.194;11.632;2022-08-18T01:23:25;95647.06;;;19.26
61595;BMP280;47397;48.194;11.632;2022-08-18T01:24:28;95642.19;;;19.36
61595;BMP280;47397;48.194;11.632;2022-08-18T01:25:30;95645.97;;;19.16
61595;BMP280;47397;48.194;11.632;2022-08-18T01:26:34;95642.06;;;19.38
61595;BMP280;47397;48.194;11.632;2022-08-18T01:27:36;95648.50;;;19.30
61595;BMP280;47397;48.194;11.632;2022-08-18T01:28:39;95651.06;;;19.45
61595;BMP280;47397;48.194;11.632;2022-08-18T01:29:39;95651.28;;;19.27
61595;BMP280;47397;48.194;11.632;2022-08-18T01:30:45;95656.25;;;19.30
61595;BMP280;47397;48.194;11.632;2022-08-18T01:31:48;95651.19;;;19.29
61595;BMP280;47397;48.194;11.632;2022-08-18T01:32:49;95650.09;;;19.33
61595;BMP280;47397;48.194;11.632;2022-08-18T01:33:49;95642.28;;;19.34
61595;BMP280;47397;48.194;11.632;2022-08-18T01:34:51;95646.94;;;19.28
61595;BMP280;47397;48.194;11.632;2022-08-18T01:35:52;95639.69;;;19.34
61595;BMP280;47397;48.194;11.632;2022-08-18T01:36:54;95637.28;;;19.31
61595;BMP280;47397;48.194;11.632;2022-08-18T01:37:54;95649.72;;;19.39
61595;BMP280;47397;48.194;11.632;2022-08-18T01:38:56;95641.06;;;19.40
61595;BMP280;47397;48.194;11.632;2022-08-18T01:39:58;95640.97;;;19.27
61595;BMP280;47397;48.194;11.632;2022-08-18T01:40:59;95637.94;;;19.35
61595;BMP280;47397;48.194;11.632;2022-08-18T01:41:59;95635.38;;;19.35
61595;BMP280;47397;48.194;11.632;2022-08-18T01:42:59;95632.50;;;19.25
61595;BMP280;47397;48.194;11.632;2022-08-18T01:44:01;95638.44;;;19.13
61595;BMP280;47397;48.194;11.632;2022-08-18T01:45:03;95628.25;;;18.97
61595;BMP280;47397;48.194;11.632;2022-08-18T01:46:04;95628.81;;;18.74
61595;BMP280;47397;48.194;11.632;2022-08-18T01:47:05;95638.38;;;18.86
61595;BMP280;47397;48.194;11.632;2022-08-18T01:48:05;95640.47;;;18.94
61595;BMP280;47397;48.194;11.632;2022-08-18T01:49:08;95628.69;;;19.04
61595;BMP280;47397;48.194;11.632;2022-08-18T01:50:09;95627.59;;;19.08
61595;BMP280;47397;48.194;11.632;2022-08-18T01:51:09;95629.91;;;18.98
61595;BMP280;47397;48.194;11.632;2022-08-18T01:52:12;95628.34;;;18.96
61595;BMP280;47397;48.194;11.632;2022-08-18T01:53:13;95632.94;;;19.05
61595;BMP280;47397;48.194;11.632;2022-08-18T01:54:15;95628.25;;;18.97
61595;BMP280;47397;48.194;11.632;2022-08-18T01:55:15;95625.84;;;18.94
61595;BMP280;47397;48.194;11.632;2022-08-18T01:56:16;95629.44;;;19.06
61595;BMP280;47397;48.194;11.632;2022-08-18T01:57:18;95624.91;;;19.10
61595;BMP280;47397;48.194;11.632;2022-08-18T01:58:19;95626.97;;;19.04
61595;BMP280;47397;48.194;11.632;2022-08-18T01:59:20;95616.38;;;18.95
61595;BMP280;47397;48.194;11.632;2022-08-18T02:00:20;95621.91;;;19.03
61595;BMP280;47397;48.194;11.632;2022-08-18T02:01:21;95619.50;;;19.00
61595;BMP280;47397;48.194;11.632;2022-08-18T02:02:24;95615.00;;;18.89
61595;BMP280;47397;48.194;11.632;2022-08-18T02:03:27;95615.47;;;18.96
61595;BMP280;47397;48.194;11.632;2022-08-18T02:04:31;95610.13;;;18.85
61595;BMP280;47397;48.194;11.632;2022-08-18T02:05:34;95616.19;;;18.84
61595;BMP280;47397;48.194;11.632;2022-08-18T02:06:35;95608.13;;;18.76
61595;BMP280;47397;48.194;11.632;2022-08-18T02:07:36;95608.91;;;18.90
61595;BMP280;47397;48.194;11.632;2022-08-18T02:08:37;95612.16;;;18.80
61595;BMP280;47397;48.194;11.632;2022-08-18T02:09:41;95609.03;;;18.74
61595;BMP280;47397;48.194;11.632;2022-08-18T02:10:41;95607.66;;;18.83
61595;BMP280;47397;48.194;11.632;2022-08-18T02:11:42;95609.88;;;18.75
61595;BMP280;47397;48.194;11.632;2022-08-18T02:12:42;95619.16;;;18.78
61595;BMP280;47397;48.194;11.632;2022-08-18T02:13:43;95616.56;;;18.78
61595;BMP280;47397;48.194;11.632;2022-08-18T02:14:46;95616.22;;;18.69
61595;BMP280;47397;48.194;11.632;2022-08-18T02:15:46;95622.38;;;18.67
61595;BMP280;47397;48.194;11.632;2022-08-18T02:16:47;95618.59;;;18.72
61595;BMP280;47397;48.194;11.632;2022-08-18T02:17:47;95615.84;;;18.76
61595;BMP280;47397;48.194;11.632;2022-08-18T02:18:48;95619.53;;;18.71
61595;BMP280;47397;48.194;11.632;2022-08-18T02:19:51;95619.31;;;18.60
61595;BMP280;47397;48.194;11.632;2022-08-18T02:20:51;95618.16;;;18.66
61595;BMP280;47397;48.194;11.632;2022-08-18T02:21:52;95617.81;;;18.56
61595;BMP280;47397;48.194;11.632;2022-08-18T02:22:52;95620.31;;;18.58
61595;BMP280;47397;48.194;11.632;2022-08-18T02:23:53;95622.03;;;18.57
61595;BMP280;47397;48.194;11.632;2022-08-18T02:24:55;95616.84;;;18.59
61595;BMP280;47397;48.194;11.632;2022-08-18T02:26:03;95615.16;;;18.58
61595;BMP280;47397;48.194;11.632;2022-08-18T02:27:04;95618.97;;;18.66
61595;BMP280;47397;48.194;11.632;2022-08-18T02:28:04;95625.38;;;18.59
61595;BMP280;47397;48.194;11.632;2022-08-18T02:29:05;95636.13;;;18.52
61595;BMP280;47397;48.194;11.632;2022-08-18T02:30:08;95631.25;;;18.47
61595;BMP280;47397;48.194;11.632;2022-08-18T02:31:11;95633.34;;;18.40
61595;BMP280;47397;48.194;11.632;2022-08-18T02:32:11;95630.88;;;18.39
61595;BMP280;47397;48.194;11.632;2022-08-18T02:33:12;95628.84;;;18.30
61595;BMP280;47397;48.194;11.632;2022-08-18T02:34:13;95623.16;;;18.39
61595;BMP280;47397;48.194;11.632;2022-08-18T02:35:14;95616.16;;;18.41
61595;BMP280;47397;48.194;11.632;2022-08-18T02:36:15;95611.56;;;18.46
61595;BMP280;47397;48.194;11.632;2022-08-18T02:37:15;95605.78;;;18.57
61595;BMP280;47397;48.194;11.632;2022-08-18T02:38:16;95609.03;;;18.60
61595;BMP280;47397;48.194;11.632;2022-08-18T02:39:16;95608.09;;;18.61
61595;BMP280;47397;48.194;11.632;2022-08-18T02:40:18;95602.56;;;18.53
61595;BMP280;47397;48.194;11.632;2022-08-18T02:41:19;95605.97;;;18.54
61595;BMP280;47397;48.194;11.632;2022-08-18T02:42:19;95609.13;;;18.59
61595;BMP280;47397;48.194;11.632;2022-08-18T02:43:20;95610.47;;;18.36
61595;BMP280;47397;48.194;11.632;2022-08-18T02:44:20;95611.84;;;18.41
61595;BMP280;47397;48.194;11.632;2022-08-18T02:45:21;95612.03;;;18.53
61595;BMP280;47397;48.194;11.632;2022-08-18T02:46:21;95611.75;;;18.57
61595;BMP280;47397;48.194;11.632;2022-08-18T02:47:22;95606.44;;;18.46
61595;BMP280;47397;48.194;11.632;2022-08-18T02:48:23;95603.75;;;18.48
61595;BMP280;47397;48.194;11.632;2022-08-18T02:49:24;95611.13;;;18.54
61595;BMP280;47397;48.194;11.632;2022-08-18T02:50:24;95608.16;;;18.46
61595;BMP280;47397;48.194;11.632;2022-08-18T02:51:25;95613.41;;;18.44
61595;BMP280;47397;48.194;11.632;2022-08-18T02:52:25;95610.75;;;18.46
61595;BMP280;47397;48.194;11.632;2022-08-18T02:53:26;95612.94;;;18.52
61595;BMP280;47397;48.194;11.632;2022-08-18T02:54:26;95602.75;;;18.50
61595;BMP280;47397;48.194;11.632;2022-08-18T02:55:28;95600.81;;;18.39
61595;BMP280;47397;48.194;11.632;2022-08-18T02:56:30;95605.13;;;18.25
61595;BMP280;47397;48.194;11.632;2022-08-18T02:57:31;95595.78;;;18.38
61595;BMP280;47397;48.194;11.632;2022-08-18T02:58:31;95599.53;;;18.47
61595;BMP280;47397;48.194;11.632;2022-08-18T02:59:31;95596.69;;;18.51
61595;BMP280;47397;48.194;11.632;2022-08-18T03:00:32;95599.34;;;18.50
61595;BMP280;47397;48.194;11.632;2022-08-18T03:01:34;95595.22;;;18.47
61595;BMP280;47397;48.194;11.632;2022-08-18T03:02:35;95591.06;;;18.44
61595;BMP280;47397;48.194;11.632;2022-08-18T03:03:35;95590.63;;;18.38
61595;BMP280;47397;48.194;11.632;2022-08-18T03:04:36;95594.72;;;18.12
61595;BMP280;47397;48.194;11.632;2022-08-18T03:05:36;95595.72;;;18.09
61595;BMP280;47397;48.194;11.632;2022-08-18T03:06:37;95593.09;;;18.25
61595;BMP280;47397;48.194;11.632;2022-08-18T03:07:38;95595.78;;;18.38
61595;BMP280;47397;48.194;11.632;2022-08-18T03:08:38;95594.66;;;18.42
61595;BMP280;47397;48.194;11.632;2022-08-18T03:09:39;95596.13;;;18.32
61595;BMP280;47397;48.194;11.632;2022-08-18T03:10:41;95597.41;;;18.25
61595;BMP280;47397;48.194;11.632;2022-08-18T03:11:42;95601.16;;;18.19
61595;BMP280;47397;48.194;11.632;2022-08-18T03:12:43;95600.31;;;18.19
61595;BMP280;47397;48.194;11.632;2022-08-18T03:13:44;95603.84;;;18.32
61595;BMP280;47397;48.194;11.632;2022-08-18T03:14:44;95602.75;;;18.36
61595;BMP280;47397;48.194;11.632;2022-08-18T03:15:45;95600.09;;;18.52
61595;BMP280;47397;48.194;11.632;2022-08-18T03:16:47;95600.81;;;18.54
61595;BMP280;47397;48.194;11.632;2022-08-18T03:17:47;95599.91;;;18.40
61595;BMP280;47397;48.194;11.632;2022-08-18T03:18:48;95599.91;;;18.40
61595;BMP280;47397;48.194;11.632;2022-08-18T03:19:48;95606.06;;;18.52
61595;BMP280;47397;48.194;11.632;2022-08-18T03:20:49;95601.47;;;18.43
61595;BMP280;47397;48.194;11.632;2022-08-18T03:21:49;95600.28;;;18.34
61595;BMP280;47397;48.194;11.632;2022-08-18T03:22:50;95608.59;;;18.09
61595;BMP280;47397;48.194;11.632;2022-08-18T03:23:52;95599.34;;;18.21
61595;BMP280;47397;48.194;11.632;2022-08-18T03:24:53;95603.56;;;18.36
61595;BMP280;47397;48.194;11.632;2022-08-18T03:25:54;95602.19;;;18.45
61595;BMP280;47397;48.194;11.632;2022-08-18T03:26:55;95599.81;;;18.42
61595;BMP280;47397;48.194;11.632;2022-08-18T03:27:56;95598.72;;;18.46
61595;BMP280;47397;48.194;11.632;2022-08-18T03:28:57;95587.03;;;18.55
61595;BMP280;47397;48.194;11.632;2022-08-18T03:29:58;95589.69;;;18.39
61595;BMP280;47397;48.194;11.632;2022-08-18T03:30:58;95583.72;;;18.24
61595;BMP280;47397;48.194;11.632;2022-08-18T03:31:59;95589.78;;;18.23
61595;BMP280;47397;48.194;11.632;2022-08-18T03:33:00;95583.63;;;18.26
61595;BMP280;47397;48.194;11.632;2022-08-18T03:34:00;95580.88;;;18.43
61595;BMP280;47397;48.194;11.632;2022-08-18T03:35:01;95578.59;;;18.24
61595;BMP280;47397;48.194;11.632;2022-08-18T03:36:03;95576.09;;;18.23
61595;BMP280;47397;48.194;11.632;2022-08-18T03:37:03;95578.84;;;18.34
61595;BMP280;47397;48.194;11.632;2022-08-18T03:38:04;95575.19;;;18.38
61595;BMP280;47397;48.194;11.632;2022-08-18T03:39:06;95570.50;;;18.30
61595;BMP280;47397;48.194;11.632;2022-08-18T03:40:08;95574.44;;;18.22
61595;BMP280;47397;48.194;11.632;2022-08-18T03:41:12;95574.97;;;18.12
61595;BMP280;47397;48.194;11.632;2022-08-18T03:42:12;95571.88;;;18.22
61595;BMP280;47397;48.194;11.632;2022-08-18T03:43:13;95570.28;;;18.19
61595;BMP280;47397;48.194;11.632;2022-08-18T03:44:14;95579.50;;;18.23
61595;BMP280;47397;48.194;11.632;2022-08-18T03:45:14;95579.00;;;18.02
61595;BMP280;47397;48.194;11.632;2022-08-18T03:46:16;95581.94;;;18.10
61595;BMP280;47397;48.194;11.632;2022-08-18T03:47:17;95582.13;;;18.07
61595;BMP280;47397;48.194;11.632;2022-08-18T03:48:17;95585.16;;;18.14
61595;BMP280;47397;48.194;11.632;2022-08-18T03:49:18;95576.97;;;18.07
61595;BMP280;47397;48.194;11.632;2022-08-18T03:50:19;95579.50;;;18.23
61595;BMP280;47397;48.194;11.632;2022-08-18T03:51:22;95584.75;;;18.22
61595;BMP280;47397;48.194;11.632;2022-08-18T03:52:22;95587.81;;;17.98
61595;BMP280;47397;48.194;11.632;2022-08-18T03:53:23;95590.50;;;17.81
61595;BMP280;47397;48.194;11.632;2022-08-18T03:54:23;95586.34;;;17.94
61595;BMP280;47397;48.194;11.632;2022-08-18T03:55:25;95595.72;;;18.09
61595;BMP280;47397;48.194;11.632;2022-08-18T03:56:29;95596.63;;;17.94
61595;BMP280;47397;48.194;11.632;2022-08-18T03:57:30;95598.44;;;17.92
61595;BMP280;47397;48.194;11.632;2022-08-18T03:58:30;95599.47;;;18.04
61595;BMP280;47397;48.194;11.632;2022-08-18T03:59:31;95595.78;;;17.94
61595;BMP280;47397;48.194;11.632;2022-08-18T04:00:31;95589.00;;;17.93
61595;BMP280;47397;48.194;11.632;2022-08-18T04:01:36;95583.03;;;17.92
61595;BMP280;47397;48.194;11.632;2022-08-18T04:02:37;95574.31;;;17.95
61595;BMP280;47397;48.194;11.632;2022-08-18T04:03:37;95584.41;;;17.98
61595;BMP280;47397;48.194;11.632;2022-08-18T04:04:37;95574.75;;;17.87
61595;BMP280;47397;48.194;11.632;2022-08-18T04:05:39;95577.69;;;17.65
61595;BMP280;47397;48.194;11.632;2022-08-18T04:06:42;95580.59;;;17.59
61595;BMP280;47397;48.194;11.632;2022-08-18T04:07:42;95578.28;;;17.70
61595;BMP280;47397;48.194;11.632;2022-08-18T04:08:43;95581.06;;;17.81
61595;BMP280;47397;48.194;11.632;2022-08-18T04:09:44;95584.72;;;17.62
61595;BMP280;47397;48.194;11.632;2022-08-18T04:10:44;95592.34;;;17.63
61595;BMP280;47397;48.194;11.632;2022-08-18T04:11:46;95591.53;;;17.63
61595;BMP280;47397;48.194;11.632;2022-08-18T04:12:47;95596.66;;;17.78
61595;BMP280;47397;48.194;11.632;2022-08-18T04:13:47;95599.31;;;17.61
61595;BMP280;47397;48.194;11.632;2022-08-18T04:14:49;95600.31;;;17.59
61595;BMP280;47397;48.194;11.632;2022-08-18T04:15:49;95592.28;;;17.65
61595;BMP280;47397;48.194;11.632;2022-08-18T04:16:51;95593.16;;;17.79
61595;BMP280;47397;48.194;11.632;2022-08-18T04:17:51;95589.84;;;17.77
61595;BMP280;47397;48.194;11.632;2022-08-18T04:18:52;95584.81;;;17.76
61595;BMP280;47397;48.194;11.632;2022-08-18T04:19:55;95586.88;;;17.85
61595;BMP280;47397;48.194;11.632;2022-08-18T04:20:56;95587.44;;;17.90
61595;BMP280;47397;48.194;11.632;2022-08-18T04:21:57;95587.94;;;17.81
61595;BMP280;47397;48.194;11.632;2022-08-18T04:22:57;95587.00;;;17.82
61595;BMP280;47397;48.194;11.632;2022-08-18T04:23:58;95582.97;;;17.78
61595;BMP280;47397;48.194;11.632;2022-08-18T04:24:59;95578.75;;;17.77
61595;BMP280;47397;48.194;11.632;2022-08-18T04:26:00;95574.75;;;17.87
61595;BMP280;47397;48.194;11.632;2022-08-18T04:27:03;95573.09;;;17.86
61595;BMP280;47397;48.194;11.632;2022-08-18T04:28:03;95568.19;;;17.81
61595;BMP280;47397;48.194;11.632;2022-08-18T04:29:04;95561.91;;;17.87
61595;BMP280;47397;48.194;11.632;2022-08-18T04:30:06;95559.69;;;17.65
61595;BMP280;47397;48.194;11.632;2022-08-18T04:31:09;95555.19;;;17.85
61595;BMP280;47397;48.194;11.632;2022-08-18T04:32:09;95551.34;;;17.92
61595;BMP280;47397;48.194;11.632;2022-08-18T04:33:10;95548.50;;;17.96
61595;BMP280;47397;48.194;11.632;2022-08-18T04:34:10;95559.84;;;17.78
61595;BMP280;47397;48.194;11.632;2022-08-18T04:35:10;95559.84;;;17.78
61595;BMP280;47397;48.194;11.632;2022-08-18T04:36:13;95557.91;;;17.81
61595;BMP280;47397;48.194;11.632;2022-08-18T04:37:14;95551.78;;;17.84
61595;BMP280;47397;48.194;11.632;2022-08-18T04:38:15;95545.50;;;17.74
61595;BMP280;47397;48.194;11.632;2022-08-18T04:39:15;95543.31;;;17.82
61595;BMP280;47397;48.194;11.632;2022-08-18T04:40:16;95553.72;;;17.65
61595;BMP280;47397;48.194;11.632;2022-08-18T04:41:16;95555.66;;;17.45
61595;BMP280;47397;48.194;11.632;2022-08-18T04:42:18;95557.91;;;17.36
61595;BMP280;47397;48.194;11.632;2022-08-18T04:43:19;95563.16;;;17.34
61595;BMP280;47397;48.194;11.632;2022-08-18T04:44:20;95564.06;;;17.33
61595;BMP280;47397;48.194;11.632;2022-08-18T04:45:20;95566.47;;;17.36
61595;BMP280;47397;48.194;11.632;2022-08-18T04:46:21;95564.56;;;17.24
61595;BMP280;47397;48.194;11.632;2022-08-18T04:47:21;95572.50;;;17.35
61595;BMP280;47397;48.194;11.632;2022-08-18T04:48:22;95565.34;;;17.56
61595;BMP280;47397;48.194;11.632;2022-08-18T04:49:24;95573.66;;;17.45
61595;BMP280;47397;48.194;11.632;2022-08-18T04:50:24;95575.00;;;17.37
61595;BMP280;47397;48.194;11.632;2022-08-18T04:51:27;95578.22;;;17.40
61595;BMP280;47397;48.194;11.632;2022-08-18T04:52:28;95569.56;;;17.57
61595;BMP280;47397;48.194;11.632;2022-08-18T04:53:28;95580.38;;;17.48
61595;BMP280;47397;48.194;11.632;2022-08-18T04:54:29;95567.91;;;17.56
61595;BMP280;47397;48.194;11.632;2022-08-18T04:55:29;95568.31;;;17.64
61595;BMP280;47397;48.194;11.632;2022-08-18T04:56:31;95565.34;;;17.72
61595;BMP280;47397;48.194;11.632;2022-08-18T04:57:33;95561.84;;;17.73
61595;BMP280;47397;48.194;11.632;2022-08-18T04:58:34;95565.25;;;17.73
61595;BMP280;47397;48.194;11.632;2022-08-18T04:59:35;95567.06;;;17.71
61595;BMP280;47397;48.194;11.632;2022-08-18T05:00:36;95570.94;;;17.78
61595;BMP280;47397;48.194;11.632;2022-08-18T05:01:39;95581.47;;;17.90
61595;BMP280;47397;48.194;11.632;2022-08-18T05:02:40;95579.94;;;17.71
61595;BMP280;47397;48.194;11.632;2022-08-18T05:03:40;95581.06;;;17.81
61595;BMP280;47397;48.194;11.632;2022-08-18T05:04:42;95585.69;;;17.91
61595;BMP280;47397;48.194;11.632;2022-08-18T05:05:42;95590.50;;;17.81
61595;BMP280;47397;48.194;11.632;2022-08-18T05:06:44;95591.50;;;17.78
61595;BMP280;47397;48.194;11.632;2022-08-18T05:07:45;95603.66;;;17.45
61595;BMP280;47397;48.194;11.632;2022-08-18T05:08:45;95608.63;;;17.32
61595;BMP280;47397;48.194;11.632;2022-08-18T05:09:46;95608.56;;;17.49
61595;BMP280;47397;48.194;11.632;2022-08-18T05:10:46;95607.88;;;17.62
61595;BMP280;47397;48.194;11.632;2022-08-18T05:11:47;95595.00;;;17.77
61595;BMP280;47397;48.194;11.632;2022-08-18T05:12:48;95599.97;;;17.65
61595;BMP280;47397;48.194;11.632;2022-08-18T05:13:50;95595.59;;;17.67
61595;BMP280;47397;48.194;11.632;2022-08-18T05:14:50;95597.66;;;17.76
61595;BMP280;47397;48.194;11.632;2022-08-18T05:15:52;95588.53;;;17.86
61595;BMP280;47397;48.194;11.632;2022-08-18T05:16:52;95589.56;;;17.98
61595;BMP280;47397;48.194;11.632;2022-08-18T05:17:53;95591.47;;;17.94
61595;BMP280;47397;48.194;11.632;2022-08-18T05:18:53;95588.53;;;18.00
61595;BMP280;47397;48.194;11.632;2022-08-18T05:19:54;95591.94;;;18.01
61595;BMP280;47397;48.194;11.632;2022-08-18T05:20:55;95587.09;;;18.10
61595;BMP280;47397;48.194;11.632;2022-08-18T05:21:57;95589.38;;;18.15
61595;BMP280;47397;48.194;11.632;2022-08-18T05:22:58;95586.16;;;18.11
61595;BMP280;47397;48.194;11.632;2022-08-18T05:23:58;95586.63;;;18.18
61595;BMP280;47397;48.194;11.632;2022-08-18T05:24:59;95589.13;;;18.20
61595;BMP280;47397;48.194;11.632;2022-08-18T05:26:00;95586.97;;;17.98
61595;BMP280;47397;48.194;11.632;2022-08-18T05:27:03;95587.28;;;18.07
61595;BMP280;47397;48.194;11.632;2022-08-18T05:28:05;95588.75;;;18.11
61595;BMP280;47397;48.194;11.632;2022-08-18T05:29:05;95590.56;;;17.95
61595;BMP280;47397;48.194;11.632;2022-08-18T05:30:07;95600.22;;;18.06
61595;BMP280;47397;48.194;11.632;2022-08-18T05:31:08;95595.09;;;17.76
61595;BMP280;47397;48.194;11.632;2022-08-18T05:32:09;95602.78;;;17.76
61595;BMP280;47397;48.194;11.632;2022-08-18T05:33:09;95612.44;;;17.57
61595;BMP280;47397;48.194;11.632;2022-08-18T05:34:10;95614.56;;;17.80
61595;BMP280;47397;48.194;11.632;2022-08-18T05:35:12;95630.31;;;17.90
61595;BMP280;47397;48.194;11.632;2022-08-18T05:36:40;95631.31;;;17.87
61595;BMP280;47397;48.194;11.632;2022-08-18T05:37:52;95634.50;;;18.21
61595;BMP280;47397;48.194;11.632;2022-08-18T05:39:00;95628.94;;;18.42
61595;BMP280;47397;48.194;11.632;2022-08-18T05:40:04;95626.56;;;18.54
61595;BMP280;47397;48.194;11.632;2022-08-18T05:41:08;95629.41;;;18.49
61595;BMP280;47397;48.194;11.632;2022-08-18T05:42:12;95625.22;;;18.62
61595;BMP280;47397;48.194;11.632;2022-08-18T05:43:15;95627.03;;;18.60
61595;BMP280;47397;48.194;11.632;2022-08-18T05:44:21;95626.78;;;18.65
61595;BMP280;47397;48.194;11.632;2022-08-18T05:45:22;95629.63;;;18.60
61595;BMP280;47397;48.194;11.632;2022-08-18T05:46:36;95626.78;;;18.65
61595;BMP280;47397;48.194;11.632;2022-08-18T05:47:38;95627.88;;;18.75
61595;BMP280;47397;48.194;11.632;2022-08-18T05:48:38;95633.69;;;18.79
61595;BMP280;47397;48.194;11.632;2022-08-18T05:49:42;95637.16;;;18.92